createdAt,value
2018-02-24T00:00:23.951Z,29.80
2018-02-24T00:02:52.307Z,28.43
2018-02-24T00:05:20.782Z,32.10
2018-02-24T00:07:49.228Z,31.20
2018-02-24T00:10:17.608Z,26.33
2018-02-24T00:12:45.949Z,29.60
2018-02-24T00:15:14.629Z,34.40
2018-02-24T00:17:43.112Z,31.57
2018-02-24T00:20:11.448Z,19.03
2018-02-24T00:22:43.641Z,32.97
2018-02-24T00:25:11.996Z,32.50
2018-02-24T00:27:40.357Z,14.07
2018-02-24T00:30:08.676Z,33.83
2018-02-24T00:32:37.012Z,17.80
2018-02-24T00:35:05.380Z,20.83
2018-02-24T00:37:33.745Z,28.83
2018-02-24T00:40:02.247Z,19.93
2018-02-24T00:42:30.849Z,29.20
2018-02-24T00:44:59.224Z,19.60
2018-02-24T00:47:27.571Z,31.70
2018-02-24T00:49:55.935Z,13.43
2018-02-24T00:52:24.261Z,15.50
2018-02-24T00:54:52.889Z,17.43
2018-02-24T00:57:21.355Z,23.33
2018-02-24T00:59:49.712Z,24.67
2018-02-24T01:02:18.054Z,22.07
2018-02-24T01:04:46.438Z,31.40
2018-02-24T01:07:15.115Z,25.07
2018-02-24T01:09:43.448Z,30.80
2018-02-24T01:12:11.779Z,15.80
2018-02-24T01:14:40.128Z,24.00
2018-02-24T01:17:08.544Z,16.93
2018-02-24T01:19:36.891Z,17.90
2018-02-24T01:22:05.236Z,22.63
2018-02-24T01:24:33.816Z,17.57
2018-02-24T01:27:02.191Z,27.90
2018-02-24T01:29:30.554Z,32.73
2018-02-24T01:31:58.892Z,19.87
2018-02-24T01:34:27.224Z,29.97
2018-02-24T01:36:55.564Z,25.90
2018-02-24T01:39:23.941Z,25.63
2018-02-24T01:41:52.300Z,34.73
2018-02-24T01:44:20.661Z,37.23
2018-02-24T01:46:48.996Z,23.30
2018-02-24T01:49:17.344Z,32.97
2018-02-24T01:51:45.706Z,30.20
2018-02-24T01:54:14.094Z,28.93
2018-02-24T01:56:42.451Z,35.07
2018-02-24T01:59:10.788Z,35.37
2018-02-24T02:01:39.142Z,34.57
2018-02-24T02:04:07.561Z,22.60
2018-02-24T02:06:35.887Z,19.27
2018-02-24T02:09:04.240Z,37.70
2018-02-24T02:11:32.594Z,28.50
2018-02-24T02:14:00.948Z,33.60
2018-02-24T02:16:29.294Z,36.03
2018-02-24T02:18:57.685Z,28.90
2018-02-24T02:21:26.050Z,25.77
2018-02-24T02:23:54.393Z,33.30
2018-02-24T02:26:22.711Z,13.60
2018-02-24T02:28:51.052Z,26.60
2018-02-24T02:31:19.412Z,33.20
2018-02-24T02:33:47.741Z,35.20
2018-02-24T02:36:16.125Z,37.20
2018-02-24T02:38:44.447Z,28.90
2018-02-24T02:41:12.820Z,31.33
2018-02-24T02:43:41.198Z,31.80
2018-02-24T02:46:09.547Z,33.77
2018-02-24T02:48:37.900Z,34.10
2018-02-24T02:51:06.241Z,18.90
2018-02-24T02:53:34.586Z,21.00
2018-02-24T02:56:02.938Z,14.80
2018-02-24T02:58:31.294Z,30.90
2018-02-24T03:00:59.616Z,15.70
2018-02-24T03:03:27.977Z,17.30
2018-02-24T03:05:56.317Z,24.47
2018-02-24T03:08:24.662Z,33.10
2018-02-24T03:10:53.011Z,25.03
2018-02-24T03:13:21.355Z,33.57
2018-02-24T03:15:49.747Z,30.00
2018-02-24T03:18:18.072Z,33.07
2018-02-24T03:20:46.637Z,30.93
2018-02-24T03:23:15.068Z,20.60
2018-02-24T03:25:43.384Z,13.70
2018-02-24T03:28:11.779Z,31.27
2018-02-24T03:30:40.103Z,30.03
2018-02-24T03:33:09.552Z,36.50
2018-02-24T03:35:37.913Z,37.07
2018-02-24T03:38:06.529Z,36.97
2018-02-24T03:40:34.882Z,35.27
2018-02-24T03:43:03.226Z,30.83
2018-02-24T03:45:31.554Z,35.47
2018-02-24T03:47:59.912Z,33.57
2018-02-24T03:50:28.240Z,29.30
2018-02-24T03:52:56.597Z,31.77
2018-02-24T03:55:25.022Z,34.17
2018-02-24T03:57:53.364Z,39.73
2018-02-24T04:00:21.720Z,34.50
2018-02-24T04:02:50.076Z,12.83
2018-02-24T04:05:18.456Z,26.37
2018-02-24T04:07:46.888Z,35.17
2018-02-24T04:10:15.249Z,33.30
2018-02-24T04:12:43.584Z,29.40
2018-02-24T04:15:11.917Z,22.50
2018-02-24T04:17:40.251Z,28.50
2018-02-24T04:20:08.871Z,34.30
2018-02-24T04:22:37.226Z,17.67
2018-02-24T04:25:05.550Z,16.67
2018-02-24T04:27:34.037Z,21.17
2018-02-24T04:30:02.414Z,29.17
2018-02-24T04:32:30.787Z,17.20
2018-02-24T04:34:59.198Z,34.53
2018-02-24T04:37:27.588Z,35.07
2018-02-24T04:39:55.928Z,30.40
2018-02-24T04:42:24.293Z,34.10
2018-02-24T04:44:52.632Z,21.17
2018-02-24T04:47:20.990Z,35.37
2018-02-24T04:49:49.363Z,32.07
2018-02-24T04:52:17.732Z,33.87
2018-02-24T04:54:46.126Z,34.50
2018-02-24T04:57:14.515Z,16.40
2018-02-24T04:59:42.886Z,37.70
2018-02-24T05:02:11.331Z,25.47
2018-02-24T05:04:39.659Z,35.47
2018-02-24T05:07:08.001Z,25.93
2018-02-24T05:09:36.343Z,31.50
2018-02-24T05:12:04.693Z,30.90
2018-02-24T05:14:33.056Z,22.97
2018-02-24T05:17:01.462Z,34.37
2018-02-24T05:19:29.794Z,34.70
2018-02-24T05:21:58.133Z,34.60
2018-02-24T05:24:26.473Z,37.87
2018-02-24T05:26:54.811Z,37.57
2018-02-24T05:29:23.130Z,36.03
2018-02-24T05:31:51.519Z,25.53
2018-02-24T05:34:19.864Z,36.07
2018-02-24T05:36:48.228Z,19.10
2018-02-24T05:39:17.365Z,33.30
2018-02-24T05:41:45.755Z,33.63
2018-02-24T05:44:14.092Z,26.70
2018-02-24T05:46:42.444Z,31.30
2018-02-24T05:49:10.782Z,9.90
2018-02-24T05:51:39.141Z,13.87
2018-02-24T05:54:07.496Z,21.07
2018-02-24T05:56:35.836Z,16.23
2018-02-24T05:59:04.316Z,18.67
2018-02-24T06:01:32.711Z,30.30
2018-02-24T06:04:01.072Z,30.20
2018-02-24T06:06:29.393Z,32.27
2018-02-24T06:08:57.739Z,29.93
2018-02-24T06:11:26.067Z,33.60
2018-02-24T06:13:54.428Z,36.63
2018-02-24T06:16:22.759Z,14.83
2018-02-24T06:18:51.110Z,26.60
2018-02-24T06:21:19.572Z,31.97
2018-02-24T06:23:47.914Z,32.50
2018-02-24T06:26:16.266Z,30.73
2018-02-24T06:28:44.649Z,23.20
2018-02-24T06:31:12.997Z,29.93
2018-02-24T06:33:41.355Z,29.40
2018-02-24T06:36:09.680Z,28.63
2018-02-24T06:38:38.029Z,27.50
2018-02-24T06:41:06.380Z,15.60
2018-02-24T06:43:34.732Z,31.17
2018-02-24T06:46:03.056Z,37.30
2018-02-24T06:48:31.381Z,33.00
2018-02-24T06:50:59.725Z,31.17
2018-02-24T06:53:28.080Z,25.20
2018-02-24T06:55:56.441Z,28.23
2018-02-24T06:58:24.800Z,30.33
2018-02-24T07:00:53.176Z,28.93
2018-02-24T07:03:21.497Z,30.83
2018-02-24T07:05:49.855Z,30.00
2018-02-24T07:08:18.236Z,32.73
2018-02-24T07:10:46.606Z,29.13
2018-02-24T07:13:15.012Z,28.97
2018-02-24T07:15:43.447Z,34.30
2018-02-24T07:18:11.764Z,27.93
2018-02-24T07:20:40.221Z,34.93
2018-02-24T07:23:08.685Z,25.33
2018-02-24T07:25:37.020Z,22.77
2018-02-24T07:28:05.362Z,21.37
2018-02-24T07:30:33.818Z,17.60
2018-02-24T07:33:02.193Z,26.90
2018-02-24T07:35:30.556Z,27.40
2018-02-24T07:37:58.897Z,25.73
2018-02-24T07:40:27.252Z,25.70
2018-02-24T07:42:55.728Z,29.70
2018-02-24T07:45:24.149Z,32.13
2018-02-24T07:47:52.503Z,30.37
2018-02-24T07:50:20.835Z,35.17
2018-02-24T07:52:49.197Z,30.63
2018-02-24T07:55:17.584Z,27.03
2018-02-24T07:57:45.961Z,33.87
2018-02-24T08:00:14.306Z,30.23
2018-02-24T08:02:42.658Z,27.67
2018-02-24T08:05:11.116Z,32.87
2018-02-24T08:07:39.807Z,27.10
2018-02-24T08:10:08.233Z,23.87
2018-02-24T08:12:36.619Z,26.07
2018-02-24T08:15:04.956Z,31.77
2018-02-24T08:17:34.027Z,28.60
2018-02-24T08:20:02.435Z,30.17
2018-02-24T08:22:30.799Z,28.53
2018-02-24T08:24:59.581Z,30.67
2018-02-24T08:27:27.935Z,28.90
2018-02-24T08:29:56.425Z,29.87
2018-02-24T08:32:24.764Z,26.97
2018-02-24T08:34:53.298Z,29.60
2018-02-24T08:37:30.057Z,27.03
2018-02-24T08:39:58.861Z,26.57
2018-02-24T08:42:27.300Z,27.70
2018-02-24T08:44:55.656Z,28.27
2018-02-24T08:47:23.988Z,23.07
2018-02-24T08:49:52.595Z,26.97
2018-02-24T08:52:20.950Z,31.67
2018-02-24T08:54:49.375Z,28.63
2018-02-24T08:57:17.839Z,20.00
2018-02-24T08:59:46.822Z,27.50
2018-02-24T09:02:15.177Z,26.10
2018-02-24T09:04:43.511Z,25.00
2018-02-24T09:07:11.868Z,29.10
2018-02-24T09:09:40.203Z,32.93
2018-02-24T09:12:08.810Z,28.60
2018-02-24T09:14:37.196Z,26.47
2018-02-24T09:17:05.597Z,18.13
2018-02-24T09:19:35.992Z,28.00
2018-02-24T09:22:04.325Z,26.13
2018-02-24T09:24:32.706Z,27.20
2018-02-24T09:27:02.090Z,26.67
2018-02-24T09:29:31.141Z,25.73
2018-02-24T09:31:59.520Z,24.73
2018-02-24T09:34:28.255Z,30.57
2018-02-24T09:36:56.621Z,20.90
2018-02-24T09:39:25.071Z,25.30
2018-02-24T09:41:53.508Z,27.60
2018-02-24T09:44:21.890Z,25.80
2018-02-24T09:46:50.689Z,23.70
2018-02-24T09:49:19.070Z,23.70
2018-02-24T09:51:48.046Z,22.57
2018-02-24T09:54:16.408Z,25.87
2018-02-24T09:56:44.746Z,24.07
2018-02-24T09:59:15.268Z,25.63
2018-02-24T10:01:43.642Z,12.13
2018-02-24T10:04:13.784Z,20.67
2018-02-24T10:06:43.301Z,23.50
2018-02-24T10:09:17.737Z,16.77
2018-02-24T10:11:46.560Z,16.80
2018-02-24T10:14:14.954Z,23.00
2018-02-24T10:16:43.482Z,21.33
2018-02-24T10:19:12.528Z,23.27
2018-02-24T10:24:15.042Z,22.07
2018-02-24T10:26:43.607Z,20.40
2018-02-24T10:31:44.401Z,19.87
2018-02-24T10:34:13.356Z,22.50
2018-02-24T10:36:41.771Z,23.63
2018-02-24T10:39:10.134Z,19.97
2018-02-24T10:41:38.746Z,23.27
2018-02-24T10:44:07.076Z,21.70
2018-02-24T10:46:36.126Z,19.17
2018-02-24T10:51:47.960Z,21.80
2018-02-24T10:54:16.271Z,14.33
2018-02-24T10:56:44.597Z,19.83
2018-02-24T10:59:12.924Z,20.83
2018-02-24T11:01:44.042Z,7.03
2018-02-24T11:04:17.904Z,18.10
2018-02-24T11:06:48.324Z,19.80
2018-02-24T11:09:16.673Z,19.83
2018-02-24T11:11:49.721Z,10.83
2018-02-24T11:16:51.499Z,21.67
2018-02-24T11:19:19.890Z,19.27
2018-02-24T11:21:48.402Z,19.97
2018-02-24T11:29:22.085Z,17.50
2018-02-24T11:31:50.532Z,19.93
2018-02-24T11:34:22.279Z,14.97
2018-02-24T11:36:50.644Z,17.80
2018-02-24T11:44:46.826Z,14.33
2018-02-24T11:47:15.252Z,19.20
2018-02-24T11:49:43.685Z,18.73
2018-02-24T11:59:58.858Z,15.93
2018-02-24T12:05:00.475Z,15.90
2018-02-24T12:07:28.850Z,15.63
2018-02-24T12:10:00.742Z,17.00
2018-02-24T12:12:29.185Z,16.00
2018-02-24T12:14:57.561Z,16.33
2018-02-24T12:20:19.584Z,14.30
2018-02-24T12:25:20.849Z,14.13
2018-02-24T12:27:49.751Z,12.57
2018-02-24T12:30:18.216Z,14.97
2018-02-24T12:32:47.649Z,15.20
2018-02-24T12:35:16.542Z,13.80
2018-02-24T12:37:44.901Z,13.20
2018-02-24T12:40:13.587Z,16.10
2018-02-24T12:42:41.921Z,14.17
2018-02-24T12:47:46.842Z,10.60
2018-02-24T12:50:15.207Z,10.23
2018-02-24T12:52:45.167Z,8.10
2018-02-24T12:55:13.724Z,15.17
2018-02-24T12:57:46.890Z,14.20
2018-02-24T13:00:15.282Z,14.27
2018-02-24T13:02:43.776Z,16.27
2018-02-24T13:05:12.168Z,13.00
2018-02-24T13:07:41.452Z,12.87
2018-02-24T13:10:09.833Z,8.80
2018-02-24T13:15:18.017Z,10.00
2018-02-24T13:17:46.597Z,13.40
2018-02-24T13:22:48.521Z,13.37
2018-02-24T13:25:17.001Z,15.13
2018-02-24T13:27:45.636Z,12.67
2018-02-24T13:35:20.524Z,15.17
2018-02-24T13:37:49.011Z,15.60
2018-02-24T13:40:19.229Z,15.90
2018-02-24T13:42:47.787Z,13.53
2018-02-24T13:45:16.174Z,14.63
2018-02-24T13:47:44.604Z,14.90
2018-02-24T13:50:13.903Z,15.20
2018-02-24T13:52:43.196Z,15.23
2018-02-24T13:57:44.116Z,16.00
2018-02-24T14:00:12.521Z,14.53
2018-02-24T14:02:46.674Z,13.73
2018-02-24T14:05:17.135Z,15.80
2018-02-24T14:07:45.826Z,17.03
2018-02-24T14:10:14.263Z,13.67
2018-02-24T14:12:42.612Z,15.77
2018-02-24T14:15:11.428Z,15.00
2018-02-24T14:17:42.043Z,14.67
2018-02-24T14:20:13.849Z,14.43
2018-02-24T14:25:14.857Z,14.23
2018-02-24T14:30:16.473Z,14.43
2018-02-24T14:32:46.726Z,11.37
2018-02-24T14:35:15.111Z,16.83
2018-02-24T14:37:44.479Z,16.10
2018-02-24T14:40:15.725Z,15.93
2018-02-24T14:42:44.078Z,16.67
2018-02-24T14:45:12.611Z,13.67
2018-02-24T14:47:40.882Z,13.70
2018-02-24T14:52:42.859Z,15.30
2018-02-24T14:55:11.309Z,15.30
2018-02-24T14:57:39.692Z,14.20
2018-02-24T15:00:08.051Z,7.43
2018-02-24T15:05:08.902Z,13.23
2018-02-24T15:07:37.284Z,14.47
2018-02-24T15:10:05.609Z,11.60
2018-02-24T15:12:34.139Z,15.73
2018-02-24T15:15:02.572Z,15.03
2018-02-24T15:22:39.694Z,15.90
2018-02-24T15:27:40.705Z,15.03
2018-02-24T15:30:09.104Z,16.20
2018-02-24T15:32:37.735Z,16.57
2018-02-24T15:35:06.349Z,15.30
2018-02-24T15:37:35.272Z,15.13
2018-02-24T15:40:03.648Z,15.10
2018-02-24T15:42:31.999Z,15.30
2018-02-24T15:47:43.772Z,13.63
2018-02-24T15:50:13.823Z,14.50
2018-02-24T15:52:44.693Z,10.17
2018-02-24T15:55:13.019Z,13.30
2018-02-24T15:57:45.377Z,14.37
2018-02-24T16:00:18.045Z,14.87
2018-02-24T16:02:47.084Z,15.63
2018-02-24T16:05:16.726Z,14.90
2018-02-24T16:07:48.371Z,12.13
2018-02-24T16:10:16.871Z,10.60
2018-02-24T16:15:18.818Z,14.17
2018-02-24T16:17:47.306Z,15.43
2018-02-24T16:20:15.677Z,14.97
2018-02-24T16:22:44.051Z,14.13
2018-02-24T16:27:45.181Z,11.87
2018-02-24T16:32:46.878Z,15.70
2018-02-24T16:35:15.198Z,15.63
2018-02-24T16:37:45.094Z,13.30
2018-02-24T16:40:13.500Z,14.37
2018-02-24T16:45:14.340Z,14.40
2018-02-24T16:47:46.494Z,13.57
2018-02-24T16:50:14.937Z,14.50
2018-02-24T16:52:47.723Z,11.60
2018-02-24T16:55:16.189Z,10.57
2018-02-24T16:57:44.698Z,15.40
2018-02-24T17:00:14.204Z,12.93
2018-02-24T17:02:42.524Z,12.17
2018-02-24T17:05:11.032Z,13.63
2018-02-24T17:07:40.510Z,12.13
2018-02-24T17:10:08.888Z,13.17
2018-02-24T17:15:09.946Z,12.70
2018-02-24T17:17:38.286Z,12.17
2018-02-24T17:22:39.398Z,13.20
2018-02-24T17:25:07.781Z,12.23
2018-02-24T17:27:36.224Z,12.73
2018-02-24T17:30:04.554Z,13.33
2018-02-24T17:32:33.233Z,13.17
2018-02-24T17:35:01.625Z,13.10
2018-02-24T17:37:30.016Z,11.87
2018-02-24T17:39:58.437Z,14.40
2018-02-24T17:42:26.786Z,12.00
2018-02-24T17:44:55.201Z,13.63
2018-02-24T17:50:20.341Z,14.40
2018-02-24T17:57:57.403Z,11.93
2018-02-24T18:00:27.445Z,15.77
2018-02-24T18:02:55.766Z,16.93
2018-02-24T18:07:56.613Z,18.63
2018-02-24T18:10:24.991Z,13.03
2018-02-24T18:15:26.155Z,13.83
2018-02-24T18:20:36.619Z,12.87
2018-02-24T18:23:05.896Z,16.97
2018-02-24T18:25:34.445Z,16.70
2018-02-24T18:28:02.812Z,14.97
2018-02-24T18:30:31.147Z,13.90
2018-02-24T18:38:06.531Z,14.70
2018-02-24T18:40:35.220Z,16.20
2018-02-24T18:43:03.575Z,16.03
2018-02-24T18:45:31.924Z,15.87
2018-02-24T18:48:00.260Z,17.30
2018-02-24T18:50:29.561Z,15.87
2018-02-24T18:52:58.506Z,16.90
2018-02-24T18:57:59.368Z,17.60
2018-02-24T19:00:28.041Z,15.10
2018-02-24T19:02:56.403Z,19.73
2018-02-24T19:05:24.731Z,17.03
2018-02-24T19:07:53.265Z,17.70
2018-02-24T19:10:23.877Z,20.83
2018-02-24T19:17:57.368Z,15.23
2018-02-24T19:20:25.772Z,18.47
2018-02-24T19:22:54.143Z,17.17
2018-02-24T19:25:23.661Z,15.67
2018-02-24T19:27:51.999Z,16.53
2018-02-24T19:30:20.320Z,17.27
2018-02-24T19:35:26.619Z,16.40
2018-02-24T19:38:00.298Z,15.60
2018-02-24T19:40:28.830Z,13.53
2018-02-24T19:48:04.030Z,15.23
2018-02-24T19:50:32.473Z,16.50
2018-02-24T19:53:00.800Z,10.93
2018-02-24T19:58:03.717Z,12.20
2018-02-24T20:00:32.070Z,10.53
2018-02-24T20:03:00.769Z,15.63
2018-02-24T20:05:29.557Z,14.37
2018-02-24T20:08:02.329Z,14.17
2018-02-24T20:10:31.052Z,12.63
2018-02-24T20:12:59.830Z,11.07
2018-02-24T20:15:28.992Z,10.93
2018-02-24T20:17:57.368Z,10.60
2018-02-24T20:20:25.793Z,13.00
2018-02-24T20:22:54.132Z,12.87
2018-02-24T20:25:26.881Z,10.67
2018-02-24T20:27:55.441Z,12.93
2018-02-24T20:30:24.480Z,12.30
2018-02-24T20:32:52.812Z,12.70
2018-02-24T20:37:54.842Z,10.73
2018-02-24T20:40:23.266Z,11.80
2018-02-24T20:42:52.728Z,13.20
2018-02-24T20:45:21.074Z,11.60
2018-02-24T20:47:49.458Z,12.93
2018-02-24T20:50:17.796Z,11.90
2018-02-24T20:52:47.160Z,12.67
2018-02-24T20:55:15.491Z,12.30
2018-02-24T20:57:47.406Z,12.53
2018-02-24T21:00:15.980Z,10.10
2018-02-24T21:02:44.682Z,10.23
2018-02-24T21:05:13.095Z,11.13
2018-02-24T21:07:41.463Z,7.13
2018-02-24T21:10:10.723Z,12.57
2018-02-24T21:12:39.039Z,10.30
2018-02-24T21:15:09.172Z,12.53
2018-02-24T21:17:37.568Z,10.10
2018-02-24T21:20:05.889Z,8.03
2018-02-24T21:22:34.300Z,9.13
2018-02-24T21:25:02.646Z,11.33
2018-02-24T21:27:31.000Z,6.73
2018-02-24T21:35:04.568Z,10.63
2018-02-24T21:37:34.004Z,10.80
2018-02-24T21:40:03.395Z,11.37
2018-02-24T21:45:04.970Z,8.33
2018-02-24T21:47:33.348Z,6.30
2018-02-24T21:50:01.652Z,7.50
2018-02-24T21:52:30.026Z,9.87
2018-02-24T21:54:58.392Z,10.47
2018-02-24T21:59:59.282Z,11.40
2018-02-24T22:02:27.608Z,9.00
2018-02-24T22:04:58.061Z,7.13
2018-02-24T22:07:29.005Z,8.73
2018-02-24T22:12:30.848Z,7.17
2018-02-24T22:14:59.293Z,8.07
2018-02-24T22:17:27.636Z,6.63
2018-02-24T22:19:57.892Z,7.33
2018-02-24T22:22:27.090Z,3.90
2018-02-24T22:24:55.458Z,5.93
2018-02-24T22:29:57.577Z,2.77
2018-02-24T22:32:25.909Z,5.57
2018-02-24T22:34:54.249Z,5.00
2018-02-24T22:37:24.571Z,4.73
2018-02-24T22:39:52.949Z,8.50
2018-02-24T22:42:21.311Z,8.20
2018-02-24T22:44:51.963Z,9.80
2018-02-24T22:47:20.326Z,8.50
2018-02-24T22:49:48.709Z,5.63
2018-02-24T22:52:17.058Z,6.37
2018-02-24T22:54:45.384Z,3.07
2018-02-24T22:57:16.177Z,7.67
2018-02-24T22:59:44.570Z,4.90
2018-02-24T23:02:13.063Z,7.17
2018-02-24T23:07:17.578Z,6.13
2018-02-24T23:09:46.032Z,3.67
2018-02-24T23:12:14.352Z,4.23
2018-02-24T23:17:15.432Z,4.23
2018-02-24T23:19:44.276Z,4.77
2018-02-24T23:22:12.596Z,2.10
2018-02-24T23:24:41.115Z,4.60
2018-02-24T23:27:09.475Z,4.67
2018-02-24T23:29:37.846Z,5.47
2018-02-24T23:32:06.173Z,4.43
2018-02-24T23:34:36.378Z,5.93
2018-02-24T23:39:37.274Z,5.83
2018-02-24T23:42:05.605Z,1.95
2018-02-24T23:44:33.952Z,6.50
2018-02-24T23:47:02.265Z,4.00
2018-02-24T23:49:34.153Z,5.30
2018-02-24T23:52:02.511Z,4.03
2018-02-24T23:54:30.904Z,7.67
2018-02-24T23:56:59.241Z,6.60
2018-02-24T23:59:27.572Z,5.50
